sensor_id;sensor_type;location;lat;lon;timestamp;P1;durP1;ratioP1;P2;durP2;ratioP2
28007;SDS011;15333;50.010;20.020;2023-05-10T00:01:02;56.92;;;26.20;;
28007;SDS011;15333;50.010;20.020;2023-05-10T00:04:03;31.77;;;17.58;;
28007;SDS011;15333;50.010;20.020;2023-05-10T00:07:04;27.10;;;16.55;;
28007;SDS011;15333;50.010;20.020;2023-05-10T00:10:05;30.55;;;16.75;;
28007;SDS011;15333;50.010;20.020;2023-05-10T00:13:06;29.08;;;16.60;;
28007;SDS011;15333;50.010;20.020;2023-05-10T00:16:07;30.05;;;17.42;;
28007;SDS011;15333;50.010;20.020;2023-05-10T00:19:08;22.40;;;14.18;;
28007;SDS011;15333;50.010;20.020;2023-05-10T00:22:09;25.80;;;15.85;;
28007;SDS011;15333;50.010;20.020;2023-05-10T00:25:10;30.08;;;15.65;;
28007;SDS011;15333;50.010;20.020;2023-05-10T00:28:12;25.30;;;16.30;;
28007;SDS011;15333;50.010;20.020;2023-05-10T00:31:13;26.35;;;14.82;;
28007;SDS011;15333;50.010;20.020;2023-05-10T00:34:14;24.50;;;14.32;;
28007;SDS011;15333;50.010;20.020;2023-05-10T00:37:15;27.65;;;14.15;;
28007;SDS011;15333;50.010;20.020;2023-05-10T00:40:16;22.30;;;13.43;;
28007;SDS011;15333;50.010;20.020;2023-05-10T00:43:21;24.50;;;13.50;;
28007;SDS011;15333;50.010;20.020;2023-05-10T00:46:22;22.92;;;13.55;;
28007;SDS011;15333;50.010;20.020;2023-05-10T00:49:23;24.77;;;14.05;;
28007;SDS011;15333;50.010;20.020;2023-05-10T00:52:24;22.63;;;14.73;;
28007;SDS011;15333;50.010;20.020;2023-05-10T00:55:26;27.13;;;15.20;;
28007;SDS011;15333;50.010;20.020;2023-05-10T00:58:27;25.15;;;13.73;;
28007;SDS011;15333;50.010;20.020;2023-05-10T01:01:28;29.20;;;14.50;;
28007;SDS011;15333;50.010;20.020;2023-05-10T01:04:30;24.08;;;15.10;;
28007;SDS011;15333;50.010;20.020;2023-05-10T01:07:31;22.77;;;14.20;;
28007;SDS011;15333;50.010;20.020;2023-05-10T01:10:32;27.65;;;14.13;;
28007;SDS011;15333;50.010;20.020;2023-05-10T01:13:34;24.65;;;14.65;;
28007;SDS011;15333;50.010;20.020;2023-05-10T01:16:38;26.35;;;13.88;;
28007;SDS011;15333;50.010;20.020;2023-05-10T01:19:43;28.10;;;15.80;;
28007;SDS011;15333;50.010;20.020;2023-05-10T01:22:50;27.85;;;15.93;;
28007;SDS011;15333;50.010;20.020;2023-05-10T01:36:31;25.92;;;15.80;;
28007;SDS011;15333;50.010;20.020;2023-05-10T01:39:45;23.10;;;14.30;;
28007;SDS011;15333;50.010;20.020;2023-05-10T01:42:55;20.85;;;13.45;;
28007;SDS011;15333;50.010;20.020;2023-05-10T01:46:03;23.58;;;15.10;;
28007;SDS011;15333;50.010;20.020;2023-05-10T01:49:13;24.27;;;13.70;;
28007;SDS011;15333;50.010;20.020;2023-05-10T01:52:28;26.55;;;15.25;;
28007;SDS011;15333;50.010;20.020;2023-05-10T01:55:35;25.45;;;16.13;;
28007;SDS011;15333;50.010;20.020;2023-05-10T01:58:43;23.25;;;15.10;;
28007;SDS011;15333;50.010;20.020;2023-05-10T02:01:47;24.70;;;16.40;;
28007;SDS011;15333;50.010;20.020;2023-05-10T02:04:51;25.25;;;15.48;;
28007;SDS011;15333;50.010;20.020;2023-05-10T02:07:55;23.80;;;14.95;;
28007;SDS011;15333;50.010;20.020;2023-05-10T02:10:58;24.35;;;14.18;;
28007;SDS011;15333;50.010;20.020;2023-05-10T02:14:01;26.65;;;14.60;;
28007;SDS011;15333;50.010;20.020;2023-05-10T02:17:04;23.15;;;15.45;;
28007;SDS011;15333;50.010;20.020;2023-05-10T02:20:08;25.02;;;15.80;;
28007;SDS011;15333;50.010;20.020;2023-05-10T02:23:09;30.85;;;19.48;;
28007;SDS011;15333;50.010;20.020;2023-05-10T02:26:11;33.70;;;18.65;;
28007;SDS011;15333;50.010;20.020;2023-05-10T02:29:14;28.00;;;17.60;;
28007;SDS011;15333;50.010;20.020;2023-05-10T02:32:17;26.25;;;16.65;;
28007;SDS011;15333;50.010;20.020;2023-05-10T02:35:19;25.45;;;16.92;;
28007;SDS011;15333;50.010;20.020;2023-05-10T02:38:21;23.75;;;15.60;;
28007;SDS011;15333;50.010;20.020;2023-05-10T02:41:24;22.77;;;16.00;;
28007;SDS011;15333;50.010;20.020;2023-05-10T02:44:26;30.25;;;19.20;;
28007;SDS011;15333;50.010;20.020;2023-05-10T02:47:31;30.33;;;20.95;;
28007;SDS011;15333;50.010;20.020;2023-05-10T02:50:33;30.17;;;20.80;;
28007;SDS011;15333;50.010;20.020;2023-05-10T02:53:35;35.85;;;24.60;;
28007;SDS011;15333;50.010;20.020;2023-05-10T02:56:40;37.78;;;22.27;;
28007;SDS011;15333;50.010;20.020;2023-05-10T02:59:47;24.67;;;16.88;;
28007;SDS011;15333;50.010;20.020;2023-05-10T03:02:48;24.83;;;14.82;;
28007;SDS011;15333;50.010;20.020;2023-05-10T03:05:49;23.63;;;13.70;;
28007;SDS011;15333;50.010;20.020;2023-05-10T03:08:50;21.13;;;13.43;;
28007;SDS011;15333;50.010;20.020;2023-05-10T03:12:01;23.05;;;13.75;;
28007;SDS011;15333;50.010;20.020;2023-05-10T03:18:22;30.05;;;18.58;;
28007;SDS011;15333;50.010;20.020;2023-05-10T03:21:28;28.23;;;18.17;;
28007;SDS011;15333;50.010;20.020;2023-05-10T03:24:31;25.02;;;16.02;;
28007;SDS011;15333;50.010;20.020;2023-05-10T03:27:35;24.77;;;16.25;;
28007;SDS011;15333;50.010;20.020;2023-05-10T03:30:40;23.33;;;13.45;;
28007;SDS011;15333;50.010;20.020;2023-05-10T03:33:50;20.48;;;10.93;;
28007;SDS011;15333;50.010;20.020;2023-05-10T03:36:58;17.73;;;10.68;;
28007;SDS011;15333;50.010;20.020;2023-05-10T03:40:00;22.23;;;11.73;;
28007;SDS011;15333;50.010;20.020;2023-05-10T03:43:06;22.02;;;11.65;;
28007;SDS011;15333;50.010;20.020;2023-05-10T03:46:07;20.33;;;10.50;;
28007;SDS011;15333;50.010;20.020;2023-05-10T03:49:08;26.67;;;11.73;;
28007;SDS011;15333;50.010;20.020;2023-05-10T03:52:10;12.80;;;8.43;;
28007;SDS011;15333;50.010;20.020;2023-05-10T03:55:12;21.45;;;10.13;;
28007;SDS011;15333;50.010;20.020;2023-05-10T03:58:13;20.77;;;11.57;;
28007;SDS011;15333;50.010;20.020;2023-05-10T04:01:14;16.67;;;10.10;;
28007;SDS011;15333;50.010;20.020;2023-05-10T04:04:15;13.10;;;8.52;;
28007;SDS011;15333;50.010;20.020;2023-05-10T04:07:16;14.55;;;9.15;;
28007;SDS011;15333;50.010;20.020;2023-05-10T04:10:17;11.93;;;8.35;;
28007;SDS011;15333;50.010;20.020;2023-05-10T04:13:18;13.13;;;8.23;;
28007;SDS011;15333;50.010;20.020;2023-05-10T04:16:19;13.75;;;8.27;;
28007;SDS011;15333;50.010;20.020;2023-05-10T04:19:20;12.45;;;8.60;;
28007;SDS011;15333;50.010;20.020;2023-05-10T04:22:20;14.30;;;8.85;;
28007;SDS011;15333;50.010;20.020;2023-05-10T04:25:21;13.43;;;8.20;;
28007;SDS011;15333;50.010;20.020;2023-05-10T04:28:22;15.25;;;8.20;;
28007;SDS011;15333;50.010;20.020;2023-05-10T04:31:23;12.60;;;7.63;;
28007;SDS011;15333;50.010;20.020;2023-05-10T04:34:24;13.77;;;7.90;;
28007;SDS011;15333;50.010;20.020;2023-05-10T04:37:26;14.90;;;8.60;;
28007;SDS011;15333;50.010;20.020;2023-05-10T04:40:26;12.35;;;7.72;;
28007;SDS011;15333;50.010;20.020;2023-05-10T04:43:27;15.63;;;8.35;;
28007;SDS011;15333;50.010;20.020;2023-05-10T04:46:28;15.68;;;8.60;;
28007;SDS011;15333;50.010;20.020;2023-05-10T04:49:29;14.07;;;7.88;;
28007;SDS011;15333;50.010;20.020;2023-05-10T04:52:30;16.23;;;7.68;;
28007;SDS011;15333;50.010;20.020;2023-05-10T04:55:31;13.10;;;8.32;;
28007;SDS011;15333;50.010;20.020;2023-05-10T04:58:32;12.25;;;7.50;;
28007;SDS011;15333;50.010;20.020;2023-05-10T05:01:34;11.65;;;7.07;;
28007;SDS011;15333;50.010;20.020;2023-05-10T05:04:34;14.57;;;7.43;;
28007;SDS011;15333;50.010;20.020;2023-05-10T05:07:35;10.25;;;7.28;;
28007;SDS011;15333;50.010;20.020;2023-05-10T05:10:36;12.23;;;7.55;;
28007;SDS011;15333;50.010;20.020;2023-05-10T05:13:37;14.65;;;7.32;;
28007;SDS011;15333;50.010;20.020;2023-05-10T05:16:39;14.15;;;7.70;;
28007;SDS011;15333;50.010;20.020;2023-05-10T05:19:40;12.82;;;7.72;;
28007;SDS011;15333;50.010;20.020;2023-05-10T05:22:41;16.33;;;7.53;;
28007;SDS011;15333;50.010;20.020;2023-05-10T05:25:42;13.32;;;7.43;;
28007;SDS011;15333;50.010;20.020;2023-05-10T05:28:42;11.93;;;7.53;;
28007;SDS011;15333;50.010;20.020;2023-05-10T05:31:44;13.55;;;7.18;;
28007;SDS011;15333;50.010;20.020;2023-05-10T05:34:45;17.17;;;8.15;;
28007;SDS011;15333;50.010;20.020;2023-05-10T05:37:46;18.67;;;7.97;;
28007;SDS011;15333;50.010;20.020;2023-05-10T05:40:47;12.05;;;7.13;;
28007;SDS011;15333;50.010;20.020;2023-05-10T05:43:48;14.45;;;7.13;;
28007;SDS011;15333;50.010;20.020;2023-05-10T05:46:48;14.00;;;7.40;;
28007;SDS011;15333;50.010;20.020;2023-05-10T05:49:50;12.52;;;8.27;;
28007;SDS011;15333;50.010;20.020;2023-05-10T05:52:51;14.25;;;7.60;;
28007;SDS011;15333;50.010;20.020;2023-05-10T05:55:52;10.63;;;7.78;;
28007;SDS011;15333;50.010;20.020;2023-05-10T05:58:54;11.93;;;7.82;;
28007;SDS011;15333;50.010;20.020;2023-05-10T06:01:55;11.75;;;7.90;;
28007;SDS011;15333;50.010;20.020;2023-05-10T06:04:56;10.52;;;8.18;;
28007;SDS011;15333;50.010;20.020;2023-05-10T06:07:58;18.52;;;8.18;;
28007;SDS011;15333;50.010;20.020;2023-05-10T06:11:00;11.68;;;7.88;;
28007;SDS011;15333;50.010;20.020;2023-05-10T06:14:03;13.45;;;8.30;;
28007;SDS011;15333;50.010;20.020;2023-05-10T06:17:05;13.80;;;8.13;;
28007;SDS011;15333;50.010;20.020;2023-05-10T06:20:07;22.27;;;8.07;;
28007;SDS011;15333;50.010;20.020;2023-05-10T06:23:08;13.50;;;8.27;;
28007;SDS011;15333;50.010;20.020;2023-05-10T06:26:09;13.07;;;7.63;;
28007;SDS011;15333;50.010;20.020;2023-05-10T06:29:10;16.77;;;8.57;;
28007;SDS011;15333;50.010;20.020;2023-05-10T06:32:11;15.15;;;8.13;;
28007;SDS011;15333;50.010;20.020;2023-05-10T06:35:15;16.25;;;8.05;;
28007;SDS011;15333;50.010;20.020;2023-05-10T06:38:16;13.80;;;7.60;;
28007;SDS011;15333;50.010;20.020;2023-05-10T06:41:17;15.20;;;8.30;;
28007;SDS011;15333;50.010;20.020;2023-05-10T06:44:17;12.05;;;7.38;;
28007;SDS011;15333;50.010;20.020;2023-05-10T06:47:18;14.02;;;7.45;;
28007;SDS011;15333;50.010;20.020;2023-05-10T06:50:19;11.77;;;7.75;;
28007;SDS011;15333;50.010;20.020;2023-05-10T06:53:20;12.80;;;7.78;;
28007;SDS011;15333;50.010;20.020;2023-05-10T06:56:21;14.75;;;7.43;;
28007;SDS011;15333;50.010;20.020;2023-05-10T06:59:22;14.40;;;7.40;;
28007;SDS011;15333;50.010;20.020;2023-05-10T07:02:23;15.05;;;7.45;;
28007;SDS011;15333;50.010;20.020;2023-05-10T07:05:24;13.18;;;7.97;;
28007;SDS011;15333;50.010;20.020;2023-05-10T07:08:24;13.38;;;7.30;;
28007;SDS011;15333;50.010;20.020;2023-05-10T07:11:25;12.23;;;7.25;;
28007;SDS011;15333;50.010;20.020;2023-05-10T07:14:27;14.48;;;7.30;;
28007;SDS011;15333;50.010;20.020;2023-05-10T07:17:28;11.35;;;7.13;;
28007;SDS011;15333;50.010;20.020;2023-05-10T07:20:29;11.27;;;7.30;;
28007;SDS011;15333;50.010;20.020;2023-05-10T07:23:30;12.75;;;6.78;;
28007;SDS011;15333;50.010;20.020;2023-05-10T07:26:31;9.48;;;6.32;;
28007;SDS011;15333;50.010;20.020;2023-05-10T07:29:32;16.42;;;7.45;;
28007;SDS011;15333;50.010;20.020;2023-05-10T07:32:33;15.13;;;7.15;;
28007;SDS011;15333;50.010;20.020;2023-05-10T07:35:34;13.70;;;6.70;;
28007;SDS011;15333;50.010;20.020;2023-05-10T07:38:35;15.88;;;6.90;;
28007;SDS011;15333;50.010;20.020;2023-05-10T07:41:36;11.80;;;6.35;;
28007;SDS011;15333;50.010;20.020;2023-05-10T07:44:38;10.55;;;6.70;;
28007;SDS011;15333;50.010;20.020;2023-05-10T07:47:39;12.02;;;6.30;;
28007;SDS011;15333;50.010;20.020;2023-05-10T07:50:39;16.23;;;6.88;;
28007;SDS011;15333;50.010;20.020;2023-05-10T07:53:40;8.85;;;6.35;;
28007;SDS011;15333;50.010;20.020;2023-05-10T07:56:41;10.52;;;6.38;;
28007;SDS011;15333;50.010;20.020;2023-05-10T07:59:46;11.05;;;5.93;;
28007;SDS011;15333;50.010;20.020;2023-05-10T08:02:47;8.30;;;5.25;;
28007;SDS011;15333;50.010;20.020;2023-05-10T08:05:48;8.27;;;4.97;;
28007;SDS011;15333;50.010;20.020;2023-05-10T08:08:49;8.25;;;5.28;;
28007;SDS011;15333;50.010;20.020;2023-05-10T08:11:51;7.80;;;4.95;;
28007;SDS011;15333;50.010;20.020;2023-05-10T08:14:51;8.48;;;5.35;;
28007;SDS011;15333;50.010;20.020;2023-05-10T08:17:52;5.55;;;3.70;;
28007;SDS011;15333;50.010;20.020;2023-05-10T08:20:53;5.07;;;3.80;;
28007;SDS011;15333;50.010;20.020;2023-05-10T08:23:54;9.23;;;4.72;;
28007;SDS011;15333;50.010;20.020;2023-05-10T08:26:55;7.13;;;4.25;;
28007;SDS011;15333;50.010;20.020;2023-05-10T08:29:56;6.38;;;4.20;;
28007;SDS011;15333;50.010;20.020;2023-05-10T08:32:57;6.88;;;3.97;;
28007;SDS011;15333;50.010;20.020;2023-05-10T08:35:58;7.40;;;4.20;;
28007;SDS011;15333;50.010;20.020;2023-05-10T08:38:59;7.28;;;3.92;;
28007;SDS011;15333;50.010;20.020;2023-05-10T08:42:00;4.65;;;3.72;;
28007;SDS011;15333;50.010;20.020;2023-05-10T08:45:02;6.32;;;3.78;;
28007;SDS011;15333;50.010;20.020;2023-05-10T08:48:05;4.68;;;3.13;;
28007;SDS011;15333;50.010;20.020;2023-05-10T08:51:07;5.93;;;3.90;;
28007;SDS011;15333;50.010;20.020;2023-05-10T08:54:10;8.25;;;3.75;;
28007;SDS011;15333;50.010;20.020;2023-05-10T08:57:11;4.82;;;3.08;;
28007;SDS011;15333;50.010;20.020;2023-05-10T09:00:12;6.93;;;3.38;;
28007;SDS011;15333;50.010;20.020;2023-05-10T09:03:14;5.80;;;3.40;;
28007;SDS011;15333;50.010;20.020;2023-05-10T09:06:15;5.82;;;3.75;;
28007;SDS011;15333;50.010;20.020;2023-05-10T09:09:16;4.72;;;3.33;;
28007;SDS011;15333;50.010;20.020;2023-05-10T09:12:18;8.20;;;3.05;;
28007;SDS011;15333;50.010;20.020;2023-05-10T09:15:19;5.13;;;3.03;;
28007;SDS011;15333;50.010;20.020;2023-05-10T09:18:20;6.97;;;3.30;;
28007;SDS011;15333;50.010;20.020;2023-05-10T09:21:21;8.15;;;3.00;;
28007;SDS011;15333;50.010;20.020;2023-05-10T09:24:25;3.72;;;3.35;;
28007;SDS011;15333;50.010;20.020;2023-05-10T09:27:27;6.75;;;3.58;;
28007;SDS011;15333;50.010;20.020;2023-05-10T09:30:28;3.72;;;2.85;;
28007;SDS011;15333;50.010;20.020;2023-05-10T09:33:32;4.93;;;3.25;;
28007;SDS011;15333;50.010;20.020;2023-05-10T09:36:51;5.93;;;2.85;;
28007;SDS011;15333;50.010;20.020;2023-05-10T09:39:53;6.07;;;3.10;;
28007;SDS011;15333;50.010;20.020;2023-05-10T09:46:08;3.80;;;3.13;;
28007;SDS011;15333;50.010;20.020;2023-05-10T09:49:09;5.72;;;2.95;;
28007;SDS011;15333;50.010;20.020;2023-05-10T09:52:14;3.75;;;2.92;;
28007;SDS011;15333;50.010;20.020;2023-05-10T09:55:15;3.70;;;3.10;;
28007;SDS011;15333;50.010;20.020;2023-05-10T09:58:17;5.22;;;2.92;;
28007;SDS011;15333;50.010;20.020;2023-05-10T10:01:18;6.20;;;3.13;;
28007;SDS011;15333;50.010;20.020;2023-05-10T10:04:19;6.13;;;2.70;;
28007;SDS011;15333;50.010;20.020;2023-05-10T10:07:24;5.15;;;2.80;;
28007;SDS011;15333;50.010;20.020;2023-05-10T10:10:26;4.95;;;2.58;;
28007;SDS011;15333;50.010;20.020;2023-05-10T10:13:28;6.25;;;2.47;;
28007;SDS011;15333;50.010;20.020;2023-05-10T10:16:30;5.45;;;2.90;;
28007;SDS011;15333;50.010;20.020;2023-05-10T10:19:35;5.85;;;3.20;;
28007;SDS011;15333;50.010;20.020;2023-05-10T10:22:36;4.70;;;2.90;;
28007;SDS011;15333;50.010;20.020;2023-05-10T10:25:38;3.40;;;2.78;;
28007;SDS011;15333;50.010;20.020;2023-05-10T10:28:41;6.25;;;3.42;;
28007;SDS011;15333;50.010;20.020;2023-05-10T10:31:47;7.85;;;3.40;;
28007;SDS011;15333;50.010;20.020;2023-05-10T10:34:58;3.83;;;2.83;;
28007;SDS011;15333;50.010;20.020;2023-05-10T10:38:00;4.60;;;2.80;;
28007;SDS011;15333;50.010;20.020;2023-05-10T10:41:10;4.55;;;2.75;;
28007;SDS011;15333;50.010;20.020;2023-05-10T10:47:37;4.28;;;2.80;;
28007;SDS011;15333;50.010;20.020;2023-05-10T10:50:44;6.53;;;3.10;;
28007;SDS011;15333;50.010;20.020;2023-05-10T10:53:47;4.68;;;2.60;;
28007;SDS011;15333;50.010;20.020;2023-05-10T10:57:06;5.18;;;2.97;;
28007;SDS011;15333;50.010;20.020;2023-05-10T11:03:21;4.13;;;3.10;;
28007;SDS011;15333;50.010;20.020;2023-05-10T11:06:30;5.28;;;2.90;;
28007;SDS011;15333;50.010;20.020;2023-05-10T11:09:38;4.13;;;3.15;;
28007;SDS011;15333;50.010;20.020;2023-05-10T11:12:50;3.85;;;3.00;;
28007;SDS011;15333;50.010;20.020;2023-05-10T11:16:13;4.18;;;3.17;;
28007;SDS011;15333;50.010;20.020;2023-05-10T11:19:21;6.90;;;3.75;;
28007;SDS011;15333;50.010;20.020;2023-05-10T11:22:27;6.22;;;3.05;;
28007;SDS011;15333;50.010;20.020;2023-05-10T11:25:28;4.20;;;3.08;;
28007;SDS011;15333;50.010;20.020;2023-05-10T11:28:29;4.55;;;3.30;;
28007;SDS011;15333;50.010;20.020;2023-05-10T11:31:30;3.53;;;2.95;;
28007;SDS011;15333;50.010;20.020;2023-05-10T11:34:31;4.15;;;3.22;;
28007;SDS011;15333;50.010;20.020;2023-05-10T11:37:35;3.90;;;3.30;;
28007;SDS011;15333;50.010;20.020;2023-05-10T11:40:37;5.18;;;2.97;;
28007;SDS011;15333;50.010;20.020;2023-05-10T11:43:39;4.10;;;3.33;;
28007;SDS011;15333;50.010;20.020;2023-05-10T11:46:41;5.82;;;3.60;;
28007;SDS011;15333;50.010;20.020;2023-05-10T11:49:45;4.57;;;2.75;;
28007;SDS011;15333;50.010;20.020;2023-05-10T11:52:50;6.07;;;3.22;;
28007;SDS011;15333;50.010;20.020;2023-05-10T11:55:52;4.88;;;3.05;;
28007;SDS011;15333;50.010;20.020;2023-05-10T11:58:54;6.20;;;3.00;;
28007;SDS011;15333;50.010;20.020;2023-05-10T12:01:56;6.43;;;3.40;;
28007;SDS011;15333;50.010;20.020;2023-05-10T12:04:57;6.10;;;3.00;;
28007;SDS011;15333;50.010;20.020;2023-05-10T12:08:11;6.18;;;3.13;;
28007;SDS011;15333;50.010;20.020;2023-05-10T12:11:16;5.35;;;2.63;;
28007;SDS011;15333;50.010;20.020;2023-05-10T12:14:17;3.72;;;3.03;;
28007;SDS011;15333;50.010;20.020;2023-05-10T12:17:20;7.40;;;3.20;;
28007;SDS011;15333;50.010;20.020;2023-05-10T12:20:22;9.02;;;5.85;;
28007;SDS011;15333;50.010;20.020;2023-05-10T12:23:27;6.68;;;3.45;;
28007;SDS011;15333;50.010;20.020;2023-05-10T12:26:28;4.82;;;3.92;;
28007;SDS011;15333;50.010;20.020;2023-05-10T12:29:30;6.22;;;3.00;;
28007;SDS011;15333;50.010;20.020;2023-05-10T12:32:41;5.97;;;3.78;;
28007;SDS011;15333;50.010;20.020;2023-05-10T12:35:43;4.22;;;3.45;;
28007;SDS011;15333;50.010;20.020;2023-05-10T12:38:59;5.32;;;3.28;;
28007;SDS011;15333;50.010;20.020;2023-05-10T12:42:04;2.95;;;2.58;;
28007;SDS011;15333;50.010;20.020;2023-05-10T12:45:05;4.03;;;3.10;;
28007;SDS011;15333;50.010;20.020;2023-05-10T12:48:08;5.30;;;3.05;;
28007;SDS011;15333;50.010;20.020;2023-05-10T12:51:08;3.90;;;3.20;;
28007;SDS011;15333;50.010;20.020;2023-05-10T12:54:12;6.68;;;3.55;;
28007;SDS011;15333;50.010;20.020;2023-05-10T12:57:13;9.85;;;4.35;;
28007;SDS011;15333;50.010;20.020;2023-05-10T13:00:14;6.03;;;3.30;;
28007;SDS011;15333;50.010;20.020;2023-05-10T13:03:15;5.57;;;3.40;;
28007;SDS011;15333;50.010;20.020;2023-05-10T13:06:16;4.07;;;2.85;;
28007;SDS011;15333;50.010;20.020;2023-05-10T13:09:17;8.25;;;3.08;;
28007;SDS011;15333;50.010;20.020;2023-05-10T13:12:19;6.22;;;3.17;;
28007;SDS011;15333;50.010;20.020;2023-05-10T13:15:20;6.30;;;2.95;;
28007;SDS011;15333;50.010;20.020;2023-05-10T13:18:22;6.35;;;3.20;;
28007;SDS011;15333;50.010;20.020;2023-05-10T13:21:23;5.70;;;3.38;;
28007;SDS011;15333;50.010;20.020;2023-05-10T13:24:25;3.70;;;2.80;;
28007;SDS011;15333;50.010;20.020;2023-05-10T13:27:26;5.13;;;3.13;;
28007;SDS011;15333;50.010;20.020;2023-05-10T13:30:27;3.72;;;2.70;;
28007;SDS011;15333;50.010;20.020;2023-05-10T13:33:29;7.97;;;3.10;;
28007;SDS011;15333;50.010;20.020;2023-05-10T13:36:30;6.43;;;3.08;;
28007;SDS011;15333;50.010;20.020;2023-05-10T13:39:31;4.47;;;2.80;;
28007;SDS011;15333;50.010;20.020;2023-05-10T13:42:35;5.43;;;2.65;;
28007;SDS011;15333;50.010;20.020;2023-05-10T13:45:35;6.03;;;3.20;;
28007;SDS011;15333;50.010;20.020;2023-05-10T13:48:37;3.83;;;3.08;;
28007;SDS011;15333;50.010;20.020;2023-05-10T13:51:38;5.93;;;3.22;;
28007;SDS011;15333;50.010;20.020;2023-05-10T13:54:39;6.78;;;3.20;;
28007;SDS011;15333;50.010;20.020;2023-05-10T13:57:40;6.68;;;2.90;;
28007;SDS011;15333;50.010;20.020;2023-05-10T14:00:41;6.40;;;3.00;;
28007;SDS011;15333;50.010;20.020;2023-05-10T14:03:42;6.68;;;3.28;;
28007;SDS011;15333;50.010;20.020;2023-05-10T14:06:43;7.35;;;3.25;;
28007;SDS011;15333;50.010;20.020;2023-05-10T14:09:44;6.63;;;3.03;;
28007;SDS011;15333;50.010;20.020;2023-05-10T14:12:45;5.50;;;3.03;;
28007;SDS011;15333;50.010;20.020;2023-05-10T14:15:46;5.85;;;3.17;;
28007;SDS011;15333;50.010;20.020;2023-05-10T14:18:48;6.93;;;3.10;;
28007;SDS011;15333;50.010;20.020;2023-05-10T14:21:49;4.05;;;2.58;;
28007;SDS011;15333;50.010;20.020;2023-05-10T14:24:52;3.95;;;2.67;;
28007;SDS011;15333;50.010;20.020;2023-05-10T14:27:53;4.03;;;3.33;;
28007;SDS011;15333;50.010;20.020;2023-05-10T14:30:55;5.15;;;2.90;;
28007;SDS011;15333;50.010;20.020;2023-05-10T14:33:56;5.10;;;2.85;;
28007;SDS011;15333;50.010;20.020;2023-05-10T14:36:58;3.97;;;3.10;;
28007;SDS011;15333;50.010;20.020;2023-05-10T14:39:59;4.22;;;2.78;;
28007;SDS011;15333;50.010;20.020;2023-05-10T14:43:01;3.83;;;2.90;;
28007;SDS011;15333;50.010;20.020;2023-05-10T14:46:01;4.72;;;3.15;;
28007;SDS011;15333;50.010;20.020;2023-05-10T14:49:02;4.53;;;3.10;;
28007;SDS011;15333;50.010;20.020;2023-05-10T14:52:03;6.28;;;2.80;;
28007;SDS011;15333;50.010;20.020;2023-05-10T14:55:04;4.47;;;2.40;;
28007;SDS011;15333;50.010;20.020;2023-05-10T14:58:06;3.80;;;2.55;;
28007;SDS011;15333;50.010;20.020;2023-05-10T15:01:07;3.72;;;2.80;;
28007;SDS011;15333;50.010;20.020;2023-05-10T15:04:08;8.10;;;3.13;;
28007;SDS011;15333;50.010;20.020;2023-05-10T15:07:10;5.22;;;3.00;;
28007;SDS011;15333;50.010;20.020;2023-05-10T15:10:14;5.05;;;2.80;;
28007;SDS011;15333;50.010;20.020;2023-05-10T15:13:16;4.32;;;2.95;;
28007;SDS011;15333;50.010;20.020;2023-05-10T15:16:17;4.38;;;2.85;;
28007;SDS011;15333;50.010;20.020;2023-05-10T15:19:19;4.53;;;2.63;;
28007;SDS011;15333;50.010;20.020;2023-05-10T15:22:20;5.15;;;3.10;;
28007;SDS011;15333;50.010;20.020;2023-05-10T15:25:21;3.42;;;2.78;;
28007;SDS011;15333;50.010;20.020;2023-05-10T15:28:24;5.63;;;2.80;;
28007;SDS011;15333;50.010;20.020;2023-05-10T15:31:25;5.05;;;2.97;;
28007;SDS011;15333;50.010;20.020;2023-05-10T15:34:27;4.93;;;2.90;;
28007;SDS011;15333;50.010;20.020;2023-05-10T15:37:28;5.13;;;3.28;;
28007;SDS011;15333;50.010;20.020;2023-05-10T15:40:29;5.20;;;2.60;;
28007;SDS011;15333;50.010;20.020;2023-05-10T15:43:30;6.40;;;2.90;;
28007;SDS011;15333;50.010;20.020;2023-05-10T15:46:31;7.95;;;3.35;;
28007;SDS011;15333;50.010;20.020;2023-05-10T15:49:33;5.32;;;2.83;;
28007;SDS011;15333;50.010;20.020;2023-05-10T15:52:34;4.45;;;3.20;;
28007;SDS011;15333;50.010;20.020;2023-05-10T15:55:37;10.25;;;3.10;;
28007;SDS011;15333;50.010;20.020;2023-05-10T15:58:38;4.45;;;2.80;;
28007;SDS011;15333;50.010;20.020;2023-05-10T16:01:39;6.68;;;3.25;;
28007;SDS011;15333;50.010;20.020;2023-05-10T16:04:42;5.55;;;2.72;;
28007;SDS011;15333;50.010;20.020;2023-05-10T16:07:44;6.93;;;3.65;;
28007;SDS011;15333;50.010;20.020;2023-05-10T16:10:46;6.43;;;3.55;;
28007;SDS011;15333;50.010;20.020;2023-05-10T16:13:47;6.53;;;2.80;;
28007;SDS011;15333;50.010;20.020;2023-05-10T16:16:48;6.50;;;3.47;;
28007;SDS011;15333;50.010;20.020;2023-05-10T16:19:49;5.97;;;2.85;;
28007;SDS011;15333;50.010;20.020;2023-05-10T16:22:50;3.10;;;2.58;;
28007;SDS011;15333;50.010;20.020;2023-05-10T16:25:53;7.13;;;3.25;;
28007;SDS011;15333;50.010;20.020;2023-05-10T16:28:54;4.57;;;2.80;;
28007;SDS011;15333;50.010;20.020;2023-05-10T17:05:29;9.05;;;4.15;;
28007;SDS011;15333;50.010;20.020;2023-05-10T17:08:30;6.50;;;4.05;;
28007;SDS011;15333;50.010;20.020;2023-05-10T17:11:31;12.45;;;3.65;;
28007;SDS011;15333;50.010;20.020;2023-05-10T17:14:32;6.38;;;3.45;;
28007;SDS011;15333;50.010;20.020;2023-05-10T17:17:34;7.28;;;3.17;;
28007;SDS011;15333;50.010;20.020;2023-05-10T17:20:35;6.30;;;3.47;;
28007;SDS011;15333;50.010;20.020;2023-05-10T17:23:35;6.43;;;3.45;;
28007;SDS011;15333;50.010;20.020;2023-05-10T17:26:37;4.15;;;3.20;;
28007;SDS011;15333;50.010;20.020;2023-05-10T17:29:38;8.60;;;3.60;;
28007;SDS011;15333;50.010;20.020;2023-05-10T17:32:40;3.97;;;3.03;;
28007;SDS011;15333;50.010;20.020;2023-05-10T17:35:43;8.02;;;3.58;;
28007;SDS011;15333;50.010;20.020;2023-05-10T17:38:46;9.90;;;3.17;;
28007;SDS011;15333;50.010;20.020;2023-05-10T17:41:47;10.43;;;3.35;;
28007;SDS011;15333;50.010;20.020;2023-05-10T17:44:48;6.35;;;3.78;;
28007;SDS011;15333;50.010;20.020;2023-05-10T17:47:49;9.13;;;3.97;;
28007;SDS011;15333;50.010;20.020;2023-05-10T17:50:50;7.25;;;3.63;;
28007;SDS011;15333;50.010;20.020;2023-05-10T17:53:51;7.50;;;3.50;;
28007;SDS011;15333;50.010;20.020;2023-05-10T17:56:52;11.02;;;4.43;;
28007;SDS011;15333;50.010;20.020;2023-05-10T17:59:53;8.82;;;4.03;;
28007;SDS011;15333;50.010;20.020;2023-05-10T18:02:54;7.57;;;4.72;;
28007;SDS011;15333;50.010;20.020;2023-05-10T18:05:55;9.30;;;4.25;;
28007;SDS011;15333;50.010;20.020;2023-05-10T18:08:57;8.23;;;4.20;;
28007;SDS011;15333;50.010;20.020;2023-05-10T18:11:58;6.55;;;3.85;;
28007;SDS011;15333;50.010;20.020;2023-05-10T18:14:59;7.63;;;3.88;;
28007;SDS011;15333;50.010;20.020;2023-05-10T18:18:00;9.43;;;3.45;;
28007;SDS011;15333;50.010;20.020;2023-05-10T18:21:03;6.65;;;3.80;;
28007;SDS011;15333;50.010;20.020;2023-05-10T18:24:04;5.78;;;3.90;;
28007;SDS011;15333;50.010;20.020;2023-05-10T18:27:06;5.95;;;4.22;;
28007;SDS011;15333;50.010;20.020;2023-05-10T18:30:08;7.45;;;3.70;;
28007;SDS011;15333;50.010;20.020;2023-05-10T18:33:11;8.95;;;4.22;;
28007;SDS011;15333;50.010;20.020;2023-05-10T18:36:13;8.85;;;4.30;;
28007;SDS011;15333;50.010;20.020;2023-05-10T18:39:14;12.15;;;4.90;;
28007;SDS011;15333;50.010;20.020;2023-05-10T18:42:17;8.48;;;4.60;;
28007;SDS011;15333;50.010;20.020;2023-05-10T18:45:20;8.95;;;4.95;;
28007;SDS011;15333;50.010;20.020;2023-05-10T18:48:24;11.32;;;4.95;;